Time;durP1;ratioP1;P1;durP2;ratioP2;P2;SDS_P1;SDS_P2;PMS_P1;PMS_P2;Temp;Humidity;BMP_temperature;BMP_pressure;BME280_temperature;BME280_humidity;BME280_pressure;Samples;Min_cycle;Max_cycle;Signal;HPM_P1;HPM_P2
2021/07/11 00:00:52;;;;;;;;;6.50;4.00;;;;;23.65;48.63;101210.91;5078539;28;46245;-49
2021/07/11 00:03:17;;;;;;;;;4.25;2.25;;;;;23.66;48.25;101217.91;5078663;28;45397;-49
2021/07/11 00:05:43;;;;;;;;;4.00;4.00;;;;;23.66;48.13;101213.47;5079044;28;45332;-48
2021/07/11 00:08:08;;;;;;;;;2.50;2.50;;;;;23.66;48.79;101216.09;5079064;27;45299;-48
2021/07/11 00:10:34;;;;;;;;;4.00;3.00;;;;;23.66;48.11;101212.63;5077243;28;47522;-49
2021/07/11 00:12:59;;;;;;;;;3.00;3.00;;;;;23.66;48.47;101217.91;5078444;27;45409;-48
2021/07/11 00:15:26;;;;;;;;;3.75;3.25;;;;;23.66;48.66;101221.41;5078540;27;45394;-50
2021/07/11 00:17:53;;;;;;;;;4.50;4.50;;;;;23.65;48.46;101211.75;5078764;27;45616;-49
2021/07/11 00:20:21;;;;;;;;;3.75;2.75;;;;;23.66;48.33;101213.47;5077149;28;45951;-48
2021/07/11 00:22:46;;;;;;;;;3.25;3.25;;;;;23.65;48.27;101210.91;5078473;27;45870;-48
2021/07/11 00:25:13;;;;;;;;;4.00;4.00;;;;;23.64;48.47;101204.78;5078737;27;45330;-48
2021/07/11 00:27:39;;;;;;;;;5.75;3.75;;;;;23.65;48.28;101198.53;5078413;27;45375;-49
2021/07/11 00:30:05;;;;;;;;;2.25;2.25;;;;;23.61;48.65;101195.22;5078065;27;46164;-49
2021/07/11 00:32:30;;;;;;;;;3.25;3.25;;;;;23.65;48.71;101202.97;5078109;27;45855;-48
2021/07/11 00:34:56;;;;;;;;;5.00;4.00;;;;;23.63;48.68;101197.81;5078187;27;45334;-48
2021/07/11 00:37:21;;;;;;;;;4.75;3.50;;;;;23.65;48.59;101197.69;5078093;28;45313;-48
2021/07/11 00:39:46;;;;;;;;;4.25;3.50;;;;;23.64;48.29;101202.16;5077780;28;46123;-49
2021/07/11 00:42:14;;;;;;;;;4.25;3.00;;;;;23.63;48.45;101200.44;5078177;27;45223;-48
2021/07/11 00:44:39;;;;;;;;;2.75;2.75;;;;;23.63;48.86;101197.81;5078151;27;45166;-49
2021/07/11 00:47:05;;;;;;;;;4.00;3.00;;;;;23.62;48.30;101188.16;5078203;27;45328;-52
2021/07/11 00:49:30;;;;;;;;;3.75;3.00;;;;;23.64;48.90;101194.22;5077831;27;45232;-50
2021/07/11 00:51:55;;;;;;;;;3.00;3.00;;;;;23.64;48.52;101191.56;5076095;27;45239;-48
2021/07/11 00:54:21;;;;;;;;;4.00;2.50;;;;;23.63;48.42;101188.03;5078034;28;45462;-48
2021/07/11 00:56:47;;;;;;;;;3.75;2.00;;;;;23.63;48.22;101184.56;5077967;27;45388;-49
2021/07/11 00:59:13;;;;;;;;;4.50;3.00;;;;;23.61;48.43;101181.16;5077373;28;46016;-49
2021/07/11 01:01:50;;;;;;;;;2.25;2.00;;;;;23.63;48.77;101179.28;5077660;27;45776;-48
2021/07/11 01:04:30;;;;;;;;;4.00;4.00;;;;;23.62;48.66;101174.94;5078162;28;45382;-49
2021/07/11 01:07:02;;;;;;;;;3.25;3.00;;;;;23.62;48.76;101170.47;5078091;27;45255;-49
2021/07/11 01:09:33;;;;;;;;;3.00;3.00;;;;;23.60;49.04;101166.22;5077233;27;45271;-49
2021/07/11 01:12:04;;;;;;;;;2.25;2.25;;;;;23.60;48.99;101166.22;5077563;28;45754;-49
2021/07/11 01:14:30;;;;;;;;;3.75;3.25;;;;;23.61;48.68;101160.00;5077701;27;45221;-48
2021/07/11 01:16:58;;;;;;;;;4.00;4.00;;;;;23.61;48.58;101157.34;5077705;27;45252;-50
2021/07/11 01:19:29;;;;;;;;;2.00;2.00;;;;;23.61;48.67;101154.69;5076171;27;45366;-49
2021/07/11 01:22:02;;;;;;;;;2.25;2.25;;;;;23.61;48.58;101154.69;5075994;28;45607;-51
2021/07/11 01:24:32;;;;;;;;;3.00;3.00;;;;;23.61;48.65;101165.28;5077698;28;45225;-49
2021/07/11 01:27:00;;;;;;;;;2.00;2.00;;;;;23.58;48.45;101150.47;5077528;27;45412;-49
2021/07/11 01:29:26;;;;;;;;;3.00;3.00;;;;;23.61;48.91;101152.06;5077102;28;46412;-51
2021/07/11 01:31:52;;;;;;;;;2.00;2.00;;;;;23.58;48.52;101145.16;5077221;27;45327;-48
2021/07/11 01:34:18;;;;;;;;;4.25;3.00;;;;;23.59;48.76;101148.66;5077592;27;45215;-51
2021/07/11 01:36:44;;;;;;;;;3.75;3.75;;;;;23.61;48.80;101152.06;5077747;27;45174;-55
2021/07/11 01:39:10;;;;;;;;;2.50;2.50;;;;;23.59;48.63;101146.84;5077079;27;46276;-52
2021/07/11 01:41:38;;;;;;;;;2.50;2.50;;;;;23.60;48.53;101147.72;5077227;27;45647;-48
2021/07/11 01:44:05;;;;;;;;;1.75;1.75;;;;;23.58;48.24;101139.00;5075977;28;45431;-47
2021/07/11 01:46:31;;;;;;;;;2.25;2.00;;;;;23.60;48.54;101139.78;5076065;28;45430;-48
2021/07/11 01:49:00;;;;;;;;;2.00;2.00;;;;;23.59;48.57;101136.25;5076749;27;46347;-49
2021/07/11 01:51:26;;;;;;;;;3.00;3.00;;;;;23.56;48.52;101133.84;5076959;27;45729;-48
2021/07/11 01:53:52;;;;;;;;;2.50;2.50;;;;;23.59;48.75;101138.06;5077052;27;45319;-49
2021/07/11 01:56:18;;;;;;;;;1.00;1.00;;;;;23.58;48.75;101137.22;5077443;27;45493;-48
2021/07/11 01:58:44;;;;;;;;;1.50;1.50;;;;;23.56;48.40;101139.13;5076849;27;45346;-48
2021/07/11 02:01:12;;;;;;;;;2.00;2.00;;;;;23.58;48.55;101133.72;5076954;27;45350;-49
2021/07/11 02:03:38;;;;;;;;;2.00;2.00;;;;;23.57;48.81;101134.66;5076920;27;45264;-48
2021/07/11 02:06:05;;;;;;;;;2.75;2.75;;;;;23.58;48.52;101137.22;5077101;27;45307;-53
2021/07/11 02:08:30;;;;;;;;;2.00;2.00;;;;;23.57;48.95;101130.25;5076536;27;48435;-48
2021/07/11 02:10:56;;;;;;;;;3.00;2.00;;;;;23.57;48.53;101134.66;5075525;28;45319;-48
2021/07/11 02:13:46;;;;;;;;;2.00;2.00;;;;;23.58;48.88;101136.38;5076905;27;45344;-48
2021/07/11 02:16:34;;;;;;;;;2.00;2.00;;;;;23.57;48.68;101129.38;5077034;27;45521;-48
2021/07/11 02:19:00;;;;;;;;;1.00;1.00;;;;;23.57;48.46;101129.38;5076514;27;46594;-48
2021/07/11 02:21:27;;;;;;;;;1.00;1.00;;;;;23.53;48.48;101122.59;5076605;27;45638;-49
2021/07/11 02:23:53;;;;;;;;;3.00;1.00;;;;;23.56;48.29;101128.53;5075515;28;45547;-49
2021/07/11 02:26:20;;;;;;;;;2.25;2.25;;;;;23.57;48.74;101130.25;5077120;27;45317;-49
2021/07/11 02:28:49;;;;;;;;;2.00;1.50;;;;;23.57;48.49;101132.03;5075263;28;47976;-49
2021/07/11 02:31:15;;;;;;;;;1.00;1.00;;;;;23.51;48.76;101120.03;5075244;28;45747;-49
2021/07/11 02:33:43;;;;;;;;;2.00;1.25;;;;;23.56;48.46;101127.69;5076625;27;45319;-53
2021/07/11 02:36:29;;;;;;;;;1.75;1.00;;;;;23.56;48.59;101128.53;5076619;27;45423;-49
2021/07/11 02:38:57;;;;;;;;;1.50;1.25;;;;;23.56;48.57;101135.59;5075979;28;46017;-49
2021/07/11 02:41:26;;;;;;;;;2.25;2.25;;;;;23.55;48.77;101132.13;5076276;28;45262;-53
2021/07/11 02:43:53;;;;;;;;;1.25;1.25;;;;;23.56;48.29;101139.13;5076521;27;45385;-49
2021/07/11 02:46:23;;;;;;;;;2.00;1.00;;;;;23.53;48.67;101138.47;5076860;27;45417;-48
2021/07/11 02:48:49;;;;;;;;;1.75;1.75;;;;;23.56;48.38;101138.25;5076428;27;46265;-52
2021/07/11 02:51:23;;;;;;;;;1.00;1.00;;;;;23.56;48.82;101140.91;5076184;27;45737;-51
2021/07/11 02:53:50;;;;;;;;;2.00;1.75;;;;;23.55;49.02;101140.06;5076728;27;45153;-48
2021/07/11 02:56:18;;;;;;;;;1.00;1.00;;;;;23.55;48.78;101148.00;5076522;28;45310;-52
2021/07/11 02:58:48;;;;;;;;;1.00;1.00;;;;;23.56;48.85;101139.13;5075834;27;45403;-58
2021/07/11 03:01:14;;;;;;;;;2.25;1.25;;;;;23.55;48.84;101140.06;5074811;28;45831;-48
2021/07/11 03:03:41;;;;;;;;;2.00;2.00;;;;;23.54;48.47;101129.56;5076208;27;45231;-49
2021/07/11 03:06:06;;;;;;;;;2.00;1.00;;;;;23.53;49.12;101136.66;5076217;27;45190;-48
2021/07/11 03:08:32;;;;;;;;;2.75;1.00;;;;;23.55;48.90;101133.91;5075807;27;46103;-58
2021/07/11 03:11:00;;;;;;;;;1.75;1.50;;;;;23.52;48.81;101134.97;5075970;27;45333;-51
2021/07/11 03:13:26;;;;;;;;;1.00;1.00;;;;;23.51;48.66;101141.19;5076041;27;45272;-49
2021/07/11 03:15:51;;;;;;;;;1.25;1.00;;;;;23.53;48.93;101146.41;5076574;27;45527;-52
2021/07/11 03:18:17;;;;;;;;;0.25;0.25;;;;;23.53;49.01;101152.53;5075901;27;45290;-54
2021/07/11 03:20:47;;;;;;;;;4.00;1.75;;;;;23.54;48.74;101142.78;5075775;28;45318;-56
2021/07/11 03:23:12;;;;;;;;;3.00;1.00;;;;;23.52;48.56;101150.00;5078422;27;45325;-49
2021/07/11 03:25:39;;;;;;;;;1.00;1.00;;;;;23.52;48.92;101147.34;5078246;27;45303;-48
2021/07/11 03:28:06;;;;;;;;;3.00;2.00;;;;;23.52;48.79;101155.28;5079164;28;46217;-48
2021/07/11 03:30:38;;;;;;;;;0.00;0.00;;;;;23.52;48.76;101150.00;5079082;27;45467;-50
2021/07/11 03:33:06;;;;;;;;;1.75;1.75;;;;;23.53;48.61;101151.69;5079295;27;45436;-47
2021/07/11 03:35:44;;;;;;;;;1.25;1.25;;;;;23.52;48.74;101158.78;5079389;27;45278;-49
2021/07/11 03:38:17;;;;;;;;;2.00;2.00;;;;;23.52;48.85;101157.94;5078897;27;46409;-52
2021/07/11 03:40:44;;;;;;;;;2.00;2.00;;;;;23.51;49.19;101161.53;5079117;27;45689;-48
2021/07/11 03:43:12;;;;;;;;;2.00;2.00;;;;;23.51;49.06;101164.16;5079134;27;45330;-48
2021/07/11 03:45:40;;;;;;;;;2.00;2.00;;;;;23.51;48.87;101172.94;5079095;27;45445;-47
2021/07/11 03:48:11;;;;;;;;;1.75;1.75;;;;;23.51;49.25;101172.09;5078869;27;46364;-48
2021/07/11 03:50:40;;;;;;;;;3.25;2.00;;;;;23.51;48.81;101177.41;5078979;27;45785;-49
2021/07/11 03:53:08;;;;;;;;;1.00;1.00;;;;;23.50;49.08;101181.00;5079061;27;45332;-50
2021/07/11 03:55:36;;;;;;;;;1.00;1.00;;;;;23.50;49.01;101183.63;5079241;27;45224;-49
2021/07/11 03:58:03;;;;;;;;;1.00;1.00;;;;;23.49;49.01;101174.81;5078607;27;46125;-48
2021/07/11 04:00:30;;;;;;;;;1.00;1.00;;;;;23.50;49.07;101181.00;5078700;27;45418;-51
2021/07/11 04:02:56;;;;;;;;;1.00;1.00;;;;;23.49;48.62;101174.81;5079228;27;45276;-52
2021/07/11 04:05:25;;;;;;;;;1.00;1.00;;;;;23.47;48.61;101172.28;5079260;27;45456;-52
2021/07/11 04:07:54;;;;;;;;;2.00;2.00;;;;;23.45;48.91;101179.47;5078751;27;45272;-52
2021/07/11 04:10:25;;;;;;;;;2.00;2.00;;;;;23.49;48.87;101176.63;5078462;27;45314;-51
2021/07/11 04:12:51;;;;;;;;;2.50;2.50;;;;;23.47;48.97;101182.03;5078839;27;45262;-58
2021/07/11 04:15:17;;;;;;;;;1.00;1.00;;;;;23.46;49.08;101175.88;5078777;27;45414;-58
2021/07/11 04:17:47;;;;;;;;;1.50;1.50;;;;;23.47;48.79;101185.53;5078425;27;45418;-58
2021/07/11 04:20:15;;;;;;;;;2.25;2.25;;;;;23.46;49.00;101178.53;5078408;27;45378;-54
2021/07/11 04:22:41;;;;;;;;;1.50;1.50;;;;;23.45;49.12;101179.47;5077385;28;45197;-55
2021/07/11 04:25:11;;;;;;;;;1.25;1.25;;;;;23.47;48.76;101182.03;5078624;27;45541;-50
2021/07/11 04:27:41;;;;;;;;;3.00;2.00;;;;;23.46;48.63;101180.34;5078297;28;46190;-48
2021/07/11 04:30:08;;;;;;;;;1.50;1.50;;;;;23.44;48.78;101177.75;5078440;27;45903;-48
2021/07/11 04:32:35;;;;;;;;;2.75;2.75;;;;;23.45;49.20;101184.75;5078368;27;45494;-49
2021/07/11 04:35:01;;;;;;;;;1.00;1.00;;;;;23.45;48.92;101184.75;5077649;27;45515;-49
2021/07/11 04:37:26;;;;;;;;;1.00;1.00;;;;;23.45;49.07;101181.28;5078414;27;45470;-57
2021/07/11 04:39:52;;;;;;;;;0.25;0.25;;;;;23.42;49.06;101174.41;5077966;27;45328;-48
2021/07/11 04:42:17;;;;;;;;;2.00;1.75;;;;;23.44;48.83;101183.06;5078271;28;45272;-48
2021/07/11 04:44:46;;;;;;;;;1.50;1.50;;;;;23.43;48.84;101189.28;5078183;27;45374;-48
2021/07/11 04:47:14;;;;;;;;;2.00;2.00;;;;;23.44;48.99;101193.63;5077879;27;47105;-48
2021/07/11 04:49:41;;;;;;;;;2.00;2.00;;;;;23.44;48.93;101200.75;5077915;27;45437;-53
2021/07/11 04:52:07;;;;;;;;;1.75;1.75;;;;;23.43;49.16;101193.75;5077799;27;45300;-50
2021/07/11 04:54:34;;;;;;;;;1.00;1.00;;;;;23.44;48.85;101196.28;5078152;28;45572;-50
2021/07/11 04:57:00;;;;;;;;;1.25;1.25;;;;;23.44;48.85;101201.56;5077645;28;46628;-49
2021/07/11 04:59:25;;;;;;;;;2.00;1.00;;;;;23.41;49.23;101204.44;5077892;27;45203;-50
2021/07/11 05:01:51;;;;;;;;;1.00;1.00;;;;;23.41;49.11;101204.44;5077938;27;45251;-52
2021/07/11 05:04:16;;;;;;;;;1.25;1.25;;;;;23.44;49.19;101200.75;5077799;27;45158;-53
2021/07/11 05:06:41;;;;;;;;;3.00;2.00;;;;;23.43;48.90;101199.88;5077550;27;46246;-50
2021/07/11 05:09:07;;;;;;;;;1.25;1.25;;;;;23.46;48.91;101201.50;5077435;28;45337;-49
2021/07/11 05:11:33;;;;;;;;;1.00;1.00;;;;;23.45;49.29;101205.09;5077743;27;45769;-50
2021/07/11 05:13:58;;;;;;;;;2.00;1.75;;;;;23.45;49.22;101200.63;5077796;27;45430;-49
2021/07/11 05:16:24;;;;;;;;;2.00;2.00;;;;;23.46;48.89;101202.34;5077712;28;46252;-49
2021/07/11 05:18:49;;;;;;;;;1.75;1.75;;;;;23.46;49.11;101198.84;5077460;27;45382;-49
2021/07/11 05:21:15;;;;;;;;;1.50;1.50;;;;;23.46;49.09;101198.84;5077513;27;45417;-58
2021/07/11 05:23:41;;;;;;;;;1.00;1.00;;;;;23.45;49.11;101197.16;5077771;27;45445;-48
2021/07/11 05:26:06;;;;;;;;;3.00;2.00;;;;;23.45;49.27;101195.34;5077225;28;46166;-50
2021/07/11 05:28:32;;;;;;;;;2.50;2.50;;;;;23.46;49.35;101199.69;5077214;27;45413;-49
2021/07/11 05:30:57;;;;;;;;;2.25;2.25;;;;;23.46;49.07;101207.63;5076397;28;45360;-49
2021/07/11 05:33:22;;;;;;;;;1.75;1.75;;;;;23.46;49.15;101207.63;5077586;27;45631;-51
2021/07/11 05:35:48;;;;;;;;;1.75;1.75;;;;;23.44;49.21;101212.16;5077098;28;46383;-48
2021/07/11 05:38:14;;;;;;;;;2.00;1.00;;;;;23.46;48.64;101212.91;5076971;27;45251;-48
2021/07/11 05:40:39;;;;;;;;;1.00;1.00;;;;;23.46;48.84;101217.38;5077308;27;45234;-57
2021/07/11 05:43:05;;;;;;;;;3.00;2.00;;;;;23.46;48.77;101218.22;5077460;27;45372;-49
2021/07/11 05:45:30;;;;;;;;;1.50;1.50;;;;;23.46;49.20;101220.84;5076853;27;45987;-51
2021/07/11 05:47:55;;;;;;;;;2.00;0.75;;;;;23.46;48.99;101214.72;5077328;28;45494;-58
2021/07/11 05:50:22;;;;;;;;;3.25;3.00;;;;;23.45;49.01;101205.91;5077133;27;45326;-58
2021/07/11 05:52:47;;;;;;;;;1.50;1.50;;;;;23.45;49.04;101207.72;5077290;27;45310;-57
2021/07/11 05:55:13;;;;;;;;;1.75;1.75;;;;;23.46;49.14;101206.78;5075477;28;48301;-48
2021/07/11 05:57:38;;;;;;;;;1.25;1.25;;;;;23.44;49.12;101198.09;5076876;28;45282;-48
2021/07/11 06:00:09;;;;;;;;;1.75;1.75;;;;;23.46;49.40;101207.63;5076985;27;45296;-49
2021/07/11 06:02:35;;;;;;;;;2.00;2.00;;;;;23.45;49.17;101205.09;5077211;27;45266;-58
2021/07/11 06:05:00;;;;;;;;;1.50;1.50;;;;;23.46;48.91;101202.34;5076948;27;45447;-49
2021/07/11 06:07:26;;;;;;;;;2.00;2.00;;;;;23.49;49.32;101205.75;5076928;28;45368;-49
2021/07/11 06:09:51;;;;;;;;;2.00;2.00;;;;;23.44;49.28;101204.22;5076910;27;45315;-48
2021/07/11 06:12:16;;;;;;;;;2.75;2.75;;;;;23.50;48.98;101207.44;5076949;27;45425;-49
2021/07/11 06:14:43;;;;;;;;;2.25;2.25;;;;;23.47;48.94;101204.03;5076634;27;45502;-49
2021/07/11 06:17:08;;;;;;;;;1.50;1.50;;;;;23.46;49.10;101201.50;5076569;27;45361;-58
2021/07/11 06:19:34;;;;;;;;;3.00;3.00;;;;;23.44;48.89;101212.16;5075417;28;45300;-58
2021/07/11 06:21:59;;;;;;;;;2.00;2.00;;;;;23.47;49.21;101219.91;5077110;28;45532;-49
2021/07/11 06:24:25;;;;;;;;;3.00;3.00;;;;;23.49;49.20;101216.31;5076505;27;45297;-51
2021/07/11 06:26:50;;;;;;;;;2.00;2.00;;;;;23.49;49.34;101213.69;5076463;27;45274;-53
2021/07/11 06:29:15;;;;;;;;;3.25;2.00;;;;;23.50;49.13;101218.03;5076621;27;45240;-53
2021/07/11 06:31:41;;;;;;;;;2.75;2.25;;;;;23.49;49.30;101216.31;5076775;27;45632;-51
2021/07/11 06:34:06;;;;;;;;;2.00;2.00;;;;;23.50;49.26;101212.72;5075131;28;46057;-53
2021/07/11 06:36:32;;;;;;;;;2.00;2.00;;;;;23.50;48.95;101218.84;5076937;27;45369;-52
2021/07/11 06:39:00;;;;;;;;;3.00;3.00;;;;;23.49;49.21;101216.31;5076527;27;45477;-49
2021/07/11 06:41:26;;;;;;;;;2.00;2.00;;;;;23.52;49.10;101218.78;5076667;27;45381;-53
2021/07/11 06:43:52;;;;;;;;;1.75;1.75;;;;;23.53;49.11;101217.84;5076446;27;45684;-49
2021/07/11 06:46:17;;;;;;;;;2.00;2.00;;;;;23.52;49.15;101210.84;5076548;28;45374;-51
2021/07/11 06:48:43;;;;;;;;;3.75;3.00;;;;;23.52;49.49;101211.69;5076548;27;45366;-51
2021/07/11 06:51:09;;;;;;;;;2.25;2.25;;;;;23.55;49.39;101213.28;5075285;28;45605;-53
2021/07/11 06:53:35;;;;;;;;;2.00;2.00;;;;;23.53;49.07;101204.63;5076089;28;45742;-51
2021/07/11 06:56:02;;;;;;;;;3.50;2.00;;;;;23.52;48.61;101201.09;5076390;27;45370;-50
2021/07/11 06:58:28;;;;;;;;;2.00;2.00;;;;;23.56;49.05;101207.03;5079065;27;45351;-49
2021/07/11 07:00:53;;;;;;;;;2.25;2.25;;;;;23.56;48.73;101209.69;5080188;27;45472;-49
2021/07/11 07:03:18;;;;;;;;;2.00;2.00;;;;;23.56;48.87;101202.63;5079673;27;45973;-51
2021/07/11 07:05:44;;;;;;;;;2.00;2.00;;;;;23.59;48.80;101209.50;5079503;28;45264;-51
2021/07/11 07:08:09;;;;;;;;;3.00;3.00;;;;;23.57;49.01;101203.47;5078378;28;45319;-52
2021/07/11 07:10:34;;;;;;;;;1.50;1.00;;;;;23.58;49.15;101219.25;5079776;27;45296;-49
2021/07/11 07:13:00;;;;;;;;;2.00;2.00;;;;;23.57;48.81;101214.91;5079386;27;52395;-48
2021/07/11 07:15:25;;;;;;;;;2.00;2.00;;;;;23.54;48.89;101214.22;5079545;28;45297;-48
2021/07/11 07:17:50;;;;;;;;;2.75;2.75;;;;;23.56;49.07;101226.44;5079541;27;45850;-49
2021/07/11 07:20:16;;;;;;;;;2.00;2.00;;;;;23.56;49.15;101228.22;5079644;28;45354;-49
2021/07/11 07:22:42;;;;;;;;;3.00;3.00;;;;;23.55;49.30;101229.16;5079243;27;45439;-51
2021/07/11 07:25:10;;;;;;;;;2.25;2.00;;;;;23.54;48.93;101230.09;5079223;27;45389;-51
2021/07/11 07:27:35;;;;;;;;;2.00;1.25;;;;;23.53;49.00;101233.72;5079409;27;45389;-52
2021/07/11 07:30:02;;;;;;;;;3.00;3.00;;;;;23.52;49.21;101224.91;5079696;27;45465;-50
2021/07/11 07:32:28;;;;;;;;;4.50;2.00;;;;;23.53;48.90;101225.78;5079124;27;46146;-49
2021/07/11 07:34:54;;;;;;;;;2.25;2.25;;;;;23.53;48.68;101229.25;5078957;27;49010;-49
2021/07/11 07:37:19;;;;;;;;;2.00;2.00;;;;;23.55;49.02;101221.22;5079177;27;45296;-48
2021/07/11 07:39:44;;;;;;;;;2.75;2.75;;;;;23.56;48.81;101222.91;5079131;27;45209;-50
2021/07/11 07:42:10;;;;;;;;;3.75;3.00;;;;;23.57;49.33;101224.63;5078881;27;46375;-49
2021/07/11 07:44:35;;;;;;;;;3.50;3.00;;;;;23.58;48.87;101228.97;5079280;27;45616;-50
2021/07/11 07:47:00;;;;;;;;;3.00;3.00;;;;;23.57;48.91;101227.28;5079218;28;45338;-52
2021/07/11 07:49:26;;;;;;;;;3.50;3.00;;;;;23.58;49.08;101228.97;5079099;27;45655;-48
2021/07/11 07:51:52;;;;;;;;;2.00;2.00;;;;;23.58;48.85;101226.31;5078754;27;46119;-48
2021/07/11 07:54:17;;;;;;;;;1.50;1.50;;;;;23.60;48.61;101229.72;5079245;27;45396;-50
2021/07/11 07:56:43;;;;;;;;;2.75;2.75;;;;;23.59;48.81;101228.03;5078397;27;45430;-51
2021/07/11 07:59:08;;;;;;;;;3.00;3.00;;;;;23.59;48.82;101231.50;5077810;28;45394;-51
2021/07/11 08:01:34;;;;;;;;;2.00;2.00;;;;;23.60;48.50;101235.03;5078927;28;45408;-48
2021/07/11 08:04:00;;;;;;;;;3.00;3.00;;;;;23.59;48.75;101233.31;5078570;28;45463;-51
2021/07/11 08:06:25;;;;;;;;;2.00;2.00;;;;;23.59;48.57;101238.63;5078790;27;45453;-51
2021/07/11 08:08:50;;;;;;;;;2.00;2.00;;;;;23.57;48.77;101221.97;5077597;28;45469;-48
2021/07/11 08:11:16;;;;;;;;;2.75;2.75;;;;;23.58;49.23;101229.84;5078331;27;49991;-49
2021/07/11 08:13:41;;;;;;;;;4.00;3.00;;;;;23.61;48.86;101229.63;5078468;27;45338;-51
2021/07/11 08:16:07;;;;;;;;;2.00;2.00;;;;;23.61;49.02;101226.16;5079088;27;45405;-48
2021/07/11 08:18:33;;;;;;;;;3.00;3.00;;;;;23.61;48.84;101226.97;5079016;27;45157;-49
2021/07/11 08:20:58;;;;;;;;;2.75;2.75;;;;;23.62;48.75;101225.19;5078460;27;46488;-49
2021/07/11 08:23:24;;;;;;;;;3.00;3.00;;;;;23.64;48.76;101231.25;5078443;27;45230;-48
2021/07/11 08:25:50;;;;;;;;;3.00;3.00;;;;;23.64;48.51;101225.97;5078476;28;45290;-51
2021/07/11 08:28:15;;;;;;;;;4.50;3.00;;;;;23.62;48.88;101225.19;5078616;27;45234;-53
2021/07/11 08:30:41;;;;;;;;;2.50;2.25;;;;;23.65;48.77;101225.00;5078110;27;46540;-50
2021/07/11 08:33:06;;;;;;;;;3.00;3.00;;;;;23.66;48.71;101218.75;5078658;27;45445;-55
2021/07/11 08:35:32;;;;;;;;;2.25;2.25;;;;;23.66;49.02;101216.09;5078658;27;45551;-51
2021/07/11 08:37:58;;;;;;;;;3.00;3.00;;;;;23.66;48.95;101221.41;5078333;27;45264;-56
2021/07/11 08:40:23;;;;;;;;;3.25;3.25;;;;;23.66;48.69;101213.47;5078074;27;45361;-58
2021/07/11 08:42:53;;;;;;;;;2.25;2.25;;;;;23.66;48.29;101208.16;5078290;27;45469;-59
2021/07/11 08:45:18;;;;;;;;;2.00;2.00;;;;;23.70;48.75;101206.19;5078099;27;45232;-58
2021/07/11 08:47:44;;;;;;;;;3.25;2.00;;;;;23.69;48.55;101215.91;5078378;27;45545;-57
2021/07/11 08:50:13;;;;;;;;;2.75;1.25;;;;;23.70;48.54;101217.63;5077810;28;46512;-53
2021/07/11 08:52:39;;;;;;;;;3.00;3.00;;;;;23.70;48.92;101214.97;5078343;27;45290;-58
2021/07/11 08:55:25;;;;;;;;;3.00;3.00;;;;;23.71;48.73;101216.69;5078327;27;45328;-57
2021/07/11 08:57:59;;;;;;;;;3.75;3.00;;;;;23.74;48.55;101220.91;5078270;27;45523;-58
2021/07/11 09:00:30;;;;;;;;;2.00;2.00;;;;;23.73;48.34;101214.78;5077823;27;45540;-49
2021/07/11 09:02:56;;;;;;;;;2.75;2.75;;;;;23.72;48.16;101207.78;5077753;27;45658;-48
2021/07/11 09:05:22;;;;;;;;;3.50;2.00;;;;;23.71;48.61;101215.81;5077792;27;45182;-48
2021/07/11 09:07:58;;;;;;;;;3.33;3.33;;;;;23.71;48.64;101215.81;5078349;28;45502;-50
2021/07/11 09:10:36;;;;;;;;;2.00;2.00;;;;;23.68;48.70;101216.88;5077265;27;46776;-49
2021/07/11 09:13:07;;;;;;;;;3.00;2.25;;;;;23.69;48.61;101213.28;5076406;28;45474;-50
2021/07/11 09:15:36;;;;;;;;;2.00;2.00;;;;;23.70;48.31;101214.97;5076233;28;45386;-51
2021/07/11 09:18:03;;;;;;;;;3.00;3.00;;;;;23.71;48.87;101219.31;5077904;27;45356;-48
2021/07/11 09:20:28;;;;;;;;;2.75;2.00;;;;;23.74;48.60;101220.91;5076790;27;45576;-51
2021/07/11 09:23:03;;;;;;;;;3.50;2.50;;;;;23.73;48.68;101217.44;5077449;27;45316;-51
2021/07/11 09:25:29;;;;;;;;;2.00;1.25;;;;;23.76;48.73;101219.03;5077526;27;45360;-54
2021/07/11 09:27:56;;;;;;;;;2.00;2.00;;;;;23.76;48.24;101225.16;5077640;27;45504;-49
2021/07/11 09:30:22;;;;;;;;;3.00;3.00;;;;;23.77;48.52;101223.38;5077197;27;48128;-51
2021/07/11 09:32:53;;;;;;;;;3.00;3.00;;;;;23.77;47.95;101220.72;5077274;27;45422;-47
2021/07/11 09:35:21;;;;;;;;;5.00;4.00;;;;;23.78;48.47;101222.44;5077432;27;45476;-58
2021/07/11 09:38:00;;;;;;;;;3.00;3.00;;;;;23.75;48.67;101212.91;5077487;27;45560;-51
2021/07/11 09:40:27;;;;;;;;;4.75;4.00;;;;;23.77;48.62;101208.34;5077130;27;45359;-48
2021/07/11 09:42:57;;;;;;;;;2.75;2.00;;;;;23.78;47.99;101215.34;5077240;27;45645;-52
2021/07/11 09:45:30;;;;;;;;;2.00;2.00;;;;;23.76;48.33;101206.63;5076001;28;45442;-51
2021/07/11 09:48:04;;;;;;;;;3.25;2.25;;;;;23.80;48.41;101215.25;5077322;27;45291;-51
2021/07/11 09:50:29;;;;;;;;;4.00;2.00;;;;;23.80;48.08;101214.38;5075445;28;47615;-50
2021/07/11 09:52:58;;;;;;;;;3.00;3.00;;;;;23.83;48.40;101214.19;5076971;27;45431;-52
2021/07/11 09:55:28;;;;;;;;;2.75;2.75;;;;;23.84;48.22;101205.31;5077098;27;45445;-50
2021/07/11 09:57:57;;;;;;;;;2.00;2.00;;;;;23.82;48.09;101202.75;5077235;27;45355;-48
2021/07/11 10:00:26;;;;;;;;;3.25;2.50;;;;;23.83;48.21;101204.44;5076683;27;46280;-51
2021/07/11 10:02:54;;;;;;;;;3.00;3.00;;;;;23.84;47.83;101202.69;5076729;28;45973;-49
2021/07/11 10:05:21;;;;;;;;;3.25;3.25;;;;;23.84;48.09;101210.63;5076889;27;45347;-53
2021/07/11 10:07:47;;;;;;;;;2.25;2.25;;;;;23.85;48.16;101214.97;5076022;28;45393;-49
2021/07/11 10:10:16;;;;;;;;;2.50;2.50;;;;;23.86;48.31;101200.78;5076412;27;45469;-49
2021/07/11 10:12:42;;;;;;;;;2.75;2.00;;;;;23.87;48.13;101194.50;5076914;27;45745;-51
2021/07/11 10:15:28;;;;;;;;;2.50;2.50;;;;;23.88;47.83;101190.91;5076994;27;45288;-51
2021/07/11 10:18:06;;;;;;;;;3.00;3.00;;;;;23.88;47.48;101181.19;5077015;27;45202;-50
2021/07/11 10:20:35;;;;;;;;;2.75;2.75;;;;;23.90;47.89;101179.31;5076552;27;45330;-50
2021/07/11 10:23:02;;;;;;;;;2.50;2.50;;;;;23.90;48.11;101178.44;5076627;27;45782;-58
2021/07/11 10:25:29;;;;;;;;;3.00;3.00;;;;;23.90;47.66;101178.44;5075635;28;45357;-51
2021/07/11 10:28:14;;;;;;;;;6.00;4.00;;;;;23.90;47.68;101179.31;5076835;27;45467;-51
2021/07/11 10:30:45;;;;;;;;;3.50;3.50;;;;;23.88;47.91;101178.56;5076537;27;46061;-52
2021/07/11 10:33:10;;;;;;;;;3.00;3.00;;;;;23.89;47.54;101182.03;5079203;27;45484;-48
2021/07/11 10:35:58;;;;;;;;;3.00;3.00;;;;;23.90;47.97;101181.09;5080236;28;45389;-48
2021/07/11 10:38:43;;;;;;;;;3.00;3.00;;;;;23.89;47.93;101182.03;5078936;28;45398;-49
2021/07/11 10:41:13;;;;;;;;;4.00;4.00;;;;;23.89;48.00;101182.03;5080325;27;45386;-48
2021/07/11 10:43:40;;;;;;;;;3.00;3.00;;;;;23.88;47.62;101185.63;5078831;28;45466;-51
2021/07/11 10:46:06;;;;;;;;;5.00;3.00;;;;;23.87;47.30;101178.63;5080092;27;45287;-49
2021/07/11 10:48:31;;;;;;;;;2.50;2.50;;;;;23.87;47.81;101183.94;5080053;27;45513;-51
2021/07/11 10:50:58;;;;;;;;;5.75;4.00;;;;;23.89;47.42;101182.91;5079635;27;45374;-54
2021/07/11 10:53:31;;;;;;;;;2.50;2.50;;;;;23.86;47.87;101176.97;5078528;27;45612;-51
2021/07/11 10:55:56;;;;;;;;;3.00;3.00;;;;;23.87;47.13;101173.34;5080023;27;45299;-49
2021/07/11 10:58:22;;;;;;;;;2.00;2.00;;;;;23.88;47.45;101180.34;5079880;27;45411;-50
2021/07/11 11:00:48;;;;;;;;;3.50;3.50;;;;;23.88;47.62;101173.25;5079706;28;47178;-50
2021/07/11 11:03:19;;;;;;;;;3.75;3.75;;;;;23.87;47.33;101181.28;5079915;27;45744;-52
2021/07/11 11:05:46;;;;;;;;;6.00;4.75;;;;;23.86;47.49;101175.16;5079878;27;45385;-52
2021/07/11 11:08:14;;;;;;;;;2.00;2.00;;;;;23.86;46.91;101171.66;5080224;27;45531;-51
2021/07/11 11:10:41;;;;;;;;;3.75;3.75;;;;;23.85;47.62;101180.56;5079300;27;46880;-51
2021/07/11 11:13:26;;;;;;;;;3.50;3.25;;;;;23.86;47.19;101176.97;5079593;27;45291;-56
2021/07/11 11:15:51;;;;;;;;;3.50;3.25;;;;;23.84;47.43;101179.69;5079285;27;45368;-48
2021/07/11 11:18:38;;;;;;;;;4.00;4.00;;;;;23.83;47.29;101167.41;5079812;28;45290;-50
2021/07/11 11:21:09;;;;;;;;;3.00;3.00;;;;;23.84;47.46;101173.56;5079003;27;45345;-50
2021/07/11 11:23:43;;;;;;;;;3.50;3.50;;;;;23.82;47.24;101165.69;5079396;27;45239;-49
2021/07/11 11:26:15;;;;;;;;;3.75;3.75;;;;;23.83;47.31;101163.91;5079421;27;45254;-48